createdAt,value
2019-02-22T00:01:06.251Z,53.33
2019-02-22T00:03:34.917Z,47.13
2019-02-22T00:06:03.560Z,50.93
2019-02-22T00:08:32.063Z,49.23
2019-02-22T00:11:00.779Z,52.27
2019-02-22T00:13:29.517Z,52.47
2019-02-22T00:15:58.027Z,50.93
2019-02-22T00:18:26.661Z,52.63
2019-02-22T00:20:55.223Z,51.90
2019-02-22T00:23:23.810Z,52.80
2019-02-22T00:25:52.374Z,50.13
2019-02-22T00:28:21.097Z,55.03
2019-02-22T00:30:51.156Z,53.60
2019-02-22T00:33:19.749Z,54.07
2019-02-22T00:35:48.356Z,56.47
2019-02-22T00:38:16.898Z,57.60
2019-02-22T00:40:45.463Z,54.30
2019-02-22T00:43:13.988Z,57.03
2019-02-22T00:45:42.545Z,56.77
2019-02-22T00:48:11.153Z,55.73
2019-02-22T00:50:39.716Z,53.27
2019-02-22T00:53:08.229Z,52.63
2019-02-22T00:55:36.821Z,50.77
2019-02-22T00:58:05.439Z,53.43
2019-02-22T01:00:34.003Z,58.90
2019-02-22T01:03:02.592Z,54.63
2019-02-22T01:05:31.210Z,58.33
2019-02-22T01:07:59.779Z,57.93
2019-02-22T01:10:31.383Z,56.93
2019-02-22T01:13:00.048Z,60.57
2019-02-22T01:15:28.611Z,57.37
2019-02-22T01:17:57.195Z,57.37
2019-02-22T01:20:25.757Z,57.37
2019-02-22T01:22:54.272Z,59.77
2019-02-22T01:25:22.836Z,59.73
2019-02-22T01:27:51.430Z,57.60
2019-02-22T01:30:20.002Z,56.00
2019-02-22T01:32:48.844Z,61.90
2019-02-22T01:35:17.506Z,60.27
2019-02-22T01:37:46.442Z,60.10
2019-02-22T01:40:15.029Z,68.03
2019-02-22T01:42:43.658Z,58.77
2019-02-22T01:45:13.198Z,61.00
2019-02-22T01:47:41.776Z,61.13
2019-02-22T01:50:11.970Z,63.13
2019-02-22T01:52:40.800Z,61.57
2019-02-22T01:55:09.458Z,59.33
2019-02-22T01:57:38.131Z,65.73
2019-02-22T02:00:08.356Z,65.90
2019-02-22T02:02:36.920Z,62.90
2019-02-22T02:05:05.506Z,64.80
2019-02-22T02:07:34.022Z,66.60
2019-02-22T02:10:02.747Z,64.20
2019-02-22T02:12:34.331Z,70.20
2019-02-22T02:15:02.994Z,68.40
2019-02-22T02:17:31.527Z,63.40
2019-02-22T02:20:00.844Z,71.17
2019-02-22T02:22:29.637Z,68.83
2019-02-22T02:24:58.189Z,72.83
2019-02-22T02:27:26.910Z,73.27
2019-02-22T02:29:55.497Z,70.67
2019-02-22T02:32:23.989Z,67.30
2019-02-22T02:34:52.595Z,73.27
2019-02-22T02:37:21.167Z,71.97
2019-02-22T02:39:49.757Z,69.97
2019-02-22T02:42:18.318Z,67.73
2019-02-22T02:44:46.976Z,63.47
2019-02-22T02:47:15.487Z,69.10
2019-02-22T02:49:44.069Z,70.60
2019-02-22T02:52:12.634Z,67.43
2019-02-22T02:54:41.162Z,66.83
2019-02-22T02:57:09.652Z,62.43
2019-02-22T02:59:38.263Z,61.73
2019-02-22T03:02:08.473Z,70.70
2019-02-22T03:04:37.546Z,68.13
2019-02-22T03:07:07.750Z,77.17
2019-02-22T03:09:36.257Z,74.83
2019-02-22T03:12:04.829Z,74.67
2019-02-22T03:14:33.401Z,73.93
2019-02-22T03:17:01.982Z,75.83
2019-02-22T03:19:30.540Z,74.63
2019-02-22T03:21:59.024Z,78.60
2019-02-22T03:24:27.651Z,74.23
2019-02-22T03:26:56.220Z,74.77
2019-02-22T03:29:24.810Z,73.93
2019-02-22T03:31:53.380Z,81.10
2019-02-22T03:34:21.963Z,75.07
2019-02-22T03:36:50.567Z,79.60
2019-02-22T03:39:19.131Z,76.87
2019-02-22T03:41:47.712Z,76.53
2019-02-22T03:44:16.284Z,81.53
2019-02-22T03:46:44.886Z,75.70
2019-02-22T03:49:13.557Z,78.53
2019-02-22T03:51:42.162Z,71.90
2019-02-22T03:54:10.834Z,78.77
2019-02-22T03:56:39.760Z,74.83
2019-02-22T03:59:08.341Z,68.53
2019-02-22T04:01:36.928Z,71.90
2019-02-22T04:04:05.576Z,76.67
2019-02-22T04:06:34.360Z,74.03
2019-02-22T04:09:04.070Z,72.67
2019-02-22T04:11:44.637Z,67.97
2019-02-22T04:14:02.878Z,68.07
2019-02-22T04:16:31.507Z,72.13
2019-02-22T04:19:00.094Z,71.67
2019-02-22T04:21:29.464Z,64.10
2019-02-22T04:23:58.047Z,66.53
2019-02-22T04:26:26.646Z,65.20
2019-02-22T04:28:55.217Z,71.60
2019-02-22T04:31:23.855Z,62.83
2019-02-22T04:33:52.522Z,64.40
2019-02-22T04:36:21.176Z,66.67
2019-02-22T04:38:49.746Z,63.20
2019-02-22T04:41:18.382Z,64.40
2019-02-22T04:43:46.895Z,64.33
2019-02-22T04:46:18.048Z,67.03
2019-02-22T04:48:46.530Z,67.10
2019-02-22T04:51:15.170Z,61.80
2019-02-22T04:53:43.878Z,66.83
2019-02-22T04:56:12.404Z,61.37
2019-02-22T04:58:40.975Z,55.17
2019-02-22T05:01:09.533Z,59.07
2019-02-22T05:03:38.198Z,62.70
2019-02-22T05:06:06.757Z,59.17
2019-02-22T05:08:35.334Z,57.27
2019-02-22T05:11:03.899Z,56.60
2019-02-22T05:13:32.495Z,54.33
2019-02-22T05:16:01.058Z,50.03
2019-02-22T05:18:29.574Z,51.57
2019-02-22T05:20:58.254Z,56.93
2019-02-22T05:23:26.806Z,53.30
2019-02-22T05:25:55.371Z,53.73
2019-02-22T05:28:23.953Z,54.40
2019-02-22T05:30:53.887Z,56.37
2019-02-22T05:33:22.565Z,52.90
2019-02-22T05:35:51.162Z,51.80
2019-02-22T05:38:19.751Z,55.57
2019-02-22T05:40:48.322Z,59.93
2019-02-22T05:43:16.904Z,54.77
2019-02-22T05:45:45.481Z,57.57
2019-02-22T05:48:14.316Z,57.03
2019-02-22T05:50:42.951Z,55.50
2019-02-22T05:53:11.478Z,58.07
2019-02-22T05:55:40.182Z,50.63
2019-02-22T05:58:08.765Z,57.37
2019-02-22T06:00:37.417Z,61.57
2019-02-22T06:03:06.216Z,59.00
2019-02-22T06:05:34.769Z,61.53
2019-02-22T06:08:03.362Z,63.10
2019-02-22T06:10:32.011Z,61.37
2019-02-22T06:13:00.595Z,62.20
2019-02-22T06:15:31.405Z,67.73
2019-02-22T06:17:59.408Z,69.87
2019-02-22T06:20:27.902Z,65.83
2019-02-22T06:22:56.494Z,70.77
2019-02-22T06:25:25.566Z,71.47
2019-02-22T06:27:54.129Z,70.10
2019-02-22T06:30:23.213Z,69.53
2019-02-22T06:32:52.353Z,72.00
2019-02-22T06:35:20.948Z,73.07
2019-02-22T06:37:49.532Z,76.23
2019-02-22T06:40:25.490Z,73.90
2019-02-22T06:42:54.068Z,67.97
2019-02-22T06:45:22.654Z,70.83
2019-02-22T06:47:51.151Z,69.13
2019-02-22T06:50:19.743Z,65.17
2019-02-22T06:52:48.309Z,72.20
2019-02-22T06:55:16.894Z,79.27
2019-02-22T06:57:46.210Z,69.43
2019-02-22T07:00:14.864Z,71.27
2019-02-22T07:02:43.447Z,71.33
2019-02-22T07:05:12.188Z,76.53
2019-02-22T07:07:42.028Z,66.43
2019-02-22T07:10:11.488Z,69.83
2019-02-22T07:12:44.434Z,66.03
2019-02-22T07:15:13.145Z,63.90
2019-02-22T07:17:42.486Z,65.83
2019-02-22T07:20:11.767Z,67.13
2019-02-22T07:22:40.917Z,71.77
2019-02-22T07:25:11.418Z,68.47
2019-02-22T07:27:39.991Z,66.67
2019-02-22T07:30:11.315Z,68.70
2019-02-22T07:32:40.149Z,68.00
2019-02-22T07:35:09.819Z,70.57
2019-02-22T07:37:39.288Z,64.40
2019-02-22T07:40:08.206Z,66.67
2019-02-22T07:42:36.778Z,67.63
2019-02-22T07:45:08.414Z,66.30
2019-02-22T07:47:36.979Z,67.03
2019-02-22T07:50:08.968Z,68.03
2019-02-22T07:52:37.534Z,74.47
2019-02-22T07:55:07.693Z,67.93
2019-02-22T07:57:36.429Z,73.07
2019-02-22T08:00:08.650Z,74.67
2019-02-22T08:02:37.145Z,79.60
2019-02-22T08:05:08.816Z,83.07
2019-02-22T08:07:36.459Z,75.90
2019-02-22T08:10:05.827Z,77.40
2019-02-22T08:12:34.372Z,85.63
2019-02-22T08:15:02.914Z,85.67
2019-02-22T08:17:31.411Z,79.77
2019-02-22T08:20:00.335Z,81.20
2019-02-22T08:22:28.913Z,77.63
2019-02-22T08:24:57.432Z,82.33
2019-02-22T08:27:26.856Z,83.20
2019-02-22T08:29:55.986Z,76.83
2019-02-22T08:32:25.651Z,73.47
2019-02-22T08:34:54.238Z,74.13
2019-02-22T08:37:22.793Z,70.07
2019-02-22T08:39:58.726Z,70.27
2019-02-22T08:42:22.324Z,73.87
2019-02-22T08:44:50.910Z,69.03
2019-02-22T08:47:19.444Z,64.90
2019-02-22T08:49:48.016Z,64.97
2019-02-22T08:52:16.584Z,68.87
2019-02-22T08:54:47.329Z,66.97
2019-02-22T08:57:15.571Z,68.70
2019-02-22T08:59:44.322Z,64.10
2019-02-22T09:02:12.894Z,64.30
2019-02-22T09:04:41.583Z,61.47
2019-02-22T09:07:10.140Z,55.20
2019-02-22T09:09:38.738Z,59.43
2019-02-22T09:12:07.459Z,60.33
2019-02-22T09:14:36.050Z,55.63
2019-02-22T09:17:04.622Z,56.97
2019-02-22T09:19:33.194Z,55.10
2019-02-22T09:22:01.806Z,54.07
2019-02-22T09:24:30.576Z,52.27
2019-02-22T09:26:59.241Z,55.57
2019-02-22T09:29:27.841Z,52.10
2019-02-22T09:31:56.682Z,54.10
2019-02-22T09:34:25.268Z,57.00
2019-02-22T09:36:55.186Z,56.83
2019-02-22T09:39:23.942Z,59.90
2019-02-22T09:41:52.790Z,54.13
2019-02-22T09:44:21.366Z,57.20
2019-02-22T09:46:50.042Z,57.60
2019-02-22T09:49:18.595Z,49.80
2019-02-22T09:51:47.250Z,47.03
2019-02-22T09:54:17.359Z,50.97
2019-02-22T09:56:46.525Z,48.27
2019-02-22T09:59:16.662Z,50.20
2019-02-22T10:01:45.246Z,43.83
2019-02-22T10:04:14.085Z,50.13
2019-02-22T10:06:42.701Z,42.50
2019-02-22T10:09:11.270Z,44.33
2019-02-22T10:11:39.859Z,45.10
2019-02-22T10:14:08.426Z,47.13
2019-02-22T10:16:37.035Z,41.77
2019-02-22T10:19:05.651Z,39.73
2019-02-22T10:21:34.183Z,41.97
2019-02-22T10:24:02.753Z,42.00
2019-02-22T10:26:32.812Z,40.93
2019-02-22T10:29:01.377Z,40.07
2019-02-22T10:31:29.890Z,41.73
2019-02-22T10:33:58.469Z,38.83
2019-02-22T10:36:28.702Z,42.73
2019-02-22T10:38:57.380Z,37.50
2019-02-22T10:41:25.904Z,37.20
2019-02-22T10:43:55.262Z,40.53
2019-02-22T10:46:24.118Z,40.80
2019-02-22T10:48:52.684Z,38.00
2019-02-22T10:51:21.270Z,40.90
2019-02-22T10:53:49.838Z,39.27
2019-02-22T10:56:18.430Z,39.30
2019-02-22T10:58:47.027Z,40.07
2019-02-22T11:01:17.166Z,39.03
2019-02-22T11:03:45.930Z,38.80
2019-02-22T11:06:14.527Z,38.27
2019-02-22T11:08:43.107Z,34.87
2019-02-22T11:11:12.187Z,36.07
2019-02-22T11:13:41.621Z,38.97
2019-02-22T11:16:10.383Z,40.60
2019-02-22T11:18:39.507Z,38.37
2019-02-22T11:21:08.657Z,36.30
2019-02-22T11:23:37.489Z,56.20
2019-02-22T11:26:06.078Z,38.80
2019-02-22T11:28:34.579Z,36.17
2019-02-22T11:31:03.111Z,48.97
2019-02-22T11:33:32.355Z,37.77
2019-02-22T11:36:01.658Z,34.13
2019-02-22T11:38:31.530Z,34.23
2019-02-22T11:41:00.371Z,31.00
2019-02-22T11:43:28.954Z,30.93
2019-02-22T11:45:57.513Z,31.80
2019-02-22T11:48:26.107Z,28.97
2019-02-22T11:50:54.961Z,27.50
2019-02-22T11:53:23.491Z,25.67
2019-02-22T11:55:53.589Z,27.50
2019-02-22T11:58:22.302Z,26.40
2019-02-22T12:00:50.873Z,30.07
2019-02-22T12:03:24.530Z,32.63
2019-02-22T12:05:50.007Z,27.10
2019-02-22T12:08:18.562Z,28.63
2019-02-22T12:10:47.062Z,23.90
2019-02-22T12:13:15.722Z,24.80
2019-02-22T12:15:44.230Z,26.13
2019-02-22T12:18:13.310Z,24.67
2019-02-22T12:20:41.886Z,23.17
2019-02-22T12:23:10.404Z,26.23
2019-02-22T12:25:38.968Z,25.17
2019-02-22T12:28:07.477Z,26.27
2019-02-22T12:30:36.048Z,25.73
2019-02-22T12:33:04.636Z,25.50
2019-02-22T12:35:33.209Z,26.00
2019-02-22T12:38:02.650Z,33.93
2019-02-22T12:40:31.240Z,29.13
2019-02-22T12:42:59.852Z,30.93
2019-02-22T12:45:28.431Z,28.43
2019-02-22T12:47:57.093Z,27.40
2019-02-22T12:50:25.911Z,32.60
2019-02-22T12:52:54.771Z,27.67
2019-02-22T12:55:23.350Z,26.60
2019-02-22T12:57:51.940Z,25.50
2019-02-22T13:00:20.803Z,28.53
2019-02-22T13:02:49.506Z,31.53
2019-02-22T13:05:20.332Z,33.13
2019-02-22T13:07:48.858Z,35.33
2019-02-22T13:10:17.440Z,33.40
2019-02-22T13:12:46.129Z,34.60
2019-02-22T13:15:14.880Z,29.83
2019-02-22T13:17:43.575Z,29.83
2019-02-22T13:20:12.136Z,27.60
2019-02-22T13:22:40.662Z,34.57
2019-02-22T13:25:10.572Z,30.57
2019-02-22T13:27:39.158Z,30.20
2019-02-22T13:30:10.727Z,31.67
2019-02-22T13:32:39.453Z,37.47
2019-02-22T13:35:10.863Z,38.53
2019-02-22T13:37:38.569Z,41.57
2019-02-22T13:40:10.131Z,40.00
2019-02-22T13:42:39.324Z,47.33
2019-02-22T13:45:11.736Z,46.70
2019-02-22T13:47:40.402Z,40.20
2019-02-22T13:50:16.830Z,45.10
2019-02-22T13:52:45.425Z,43.97
2019-02-22T13:55:14.751Z,42.77
2019-02-22T13:57:43.366Z,42.93
2019-02-22T14:00:20.448Z,42.23
2019-02-22T14:02:49.238Z,38.87
2019-02-22T14:05:17.886Z,40.80
2019-02-22T14:07:56.211Z,42.70
2019-02-22T14:10:26.305Z,37.00
2019-02-22T14:12:55.161Z,39.77
2019-02-22T14:15:23.875Z,45.23
2019-02-22T14:17:54.838Z,41.17
2019-02-22T14:20:23.429Z,37.30
2019-02-22T14:22:52.121Z,38.70
2019-02-22T14:25:20.736Z,40.07
2019-02-22T14:27:50.318Z,42.77
2019-02-22T14:30:18.988Z,40.50
2019-02-22T14:32:49.113Z,42.70
2019-02-22T14:35:17.612Z,42.63
2019-02-22T14:37:46.258Z,49.47
2019-02-22T14:40:15.242Z,47.30
2019-02-22T14:42:43.974Z,43.87
2019-02-22T14:45:13.001Z,40.57
2019-02-22T14:47:41.714Z,40.23
2019-02-22T14:50:16.980Z,39.07
2019-02-22T14:52:45.648Z,35.10
2019-02-22T14:55:14.253Z,40.73
2019-02-22T14:57:45.852Z,42.83
2019-02-22T15:00:17.053Z,44.47
2019-02-22T15:02:45.632Z,39.87
2019-02-22T15:05:15.241Z,36.73
2019-02-22T15:07:44.002Z,33.37
2019-02-22T15:10:12.925Z,34.33
2019-02-22T15:12:41.643Z,35.43
2019-02-22T15:15:21.748Z,38.67
2019-02-22T15:17:52.730Z,33.00
2019-02-22T15:20:21.246Z,36.77
2019-02-22T15:22:49.825Z,34.07
2019-02-22T15:25:18.964Z,33.67
2019-02-22T15:27:47.544Z,35.60
2019-02-22T15:30:17.200Z,36.90
2019-02-22T15:32:45.738Z,39.63
2019-02-22T15:35:18.317Z,33.77
2019-02-22T15:37:48.266Z,39.80
2019-02-22T15:40:17.712Z,36.77
2019-02-22T15:42:46.267Z,33.27
2019-02-22T15:45:17.468Z,38.10
2019-02-22T15:47:48.597Z,35.07
2019-02-22T15:50:17.386Z,34.50
2019-02-22T15:52:47.038Z,35.03
2019-02-22T15:55:16.400Z,33.27
2019-02-22T15:57:45.136Z,36.20
2019-02-22T16:00:34.060Z,35.10
2019-02-22T16:03:02.689Z,35.30
2019-02-22T16:05:33.015Z,35.77
2019-02-22T16:08:01.681Z,34.63
2019-02-22T16:10:30.369Z,36.50
2019-02-22T16:12:58.942Z,36.67
2019-02-22T16:15:27.602Z,38.07
2019-02-22T16:17:57.814Z,34.43
2019-02-22T16:20:26.668Z,36.40
2019-02-22T16:22:55.238Z,38.37
2019-02-22T16:25:25.142Z,34.13
2019-02-22T16:27:53.638Z,35.30
2019-02-22T16:30:23.944Z,36.67
2019-02-22T16:32:52.445Z,32.67
2019-02-22T16:35:20.967Z,37.50
2019-02-22T16:37:49.806Z,35.47
2019-02-22T16:40:18.483Z,37.80
2019-02-22T16:42:46.978Z,40.20
2019-02-22T16:45:15.582Z,37.67
2019-02-22T16:47:44.419Z,36.57
2019-02-22T16:50:13.878Z,37.43
2019-02-22T16:52:45.018Z,36.70
2019-02-22T16:55:16.505Z,36.50
2019-02-22T16:57:45.162Z,36.23
2019-02-22T17:00:15.809Z,34.10
2019-02-22T17:02:44.444Z,35.47
2019-02-22T17:05:15.276Z,34.50
2019-02-22T17:07:43.863Z,37.33
2019-02-22T17:10:12.650Z,35.77
2019-02-22T17:12:41.230Z,33.40
2019-02-22T17:15:11.565Z,39.83
2019-02-22T17:17:40.302Z,33.10
2019-02-22T17:20:11.442Z,37.37
2019-02-22T17:22:41.610Z,28.50
2019-02-22T17:25:15.406Z,31.90
2019-02-22T17:27:43.899Z,32.07
2019-02-22T17:30:14.548Z,27.70
2019-02-22T17:32:43.100Z,27.13
2019-02-22T17:35:12.719Z,29.00
2019-02-22T17:37:41.302Z,28.13
2019-02-22T17:40:21.480Z,28.73
2019-02-22T17:42:50.701Z,23.63
2019-02-22T17:45:19.230Z,23.70
2019-02-22T17:47:47.794Z,23.03
2019-02-22T17:50:16.385Z,21.87
2019-02-22T17:52:45.218Z,23.40
2019-02-22T17:55:13.874Z,23.37
2019-02-22T17:57:42.391Z,22.07
2019-02-22T18:00:16.999Z,20.13
2019-02-22T18:02:45.565Z,17.83
2019-02-22T18:05:14.505Z,21.10
2019-02-22T18:07:43.002Z,19.90
2019-02-22T18:10:12.703Z,24.00
2019-02-22T18:12:41.282Z,21.43
2019-02-22T18:15:12.110Z,21.47
2019-02-22T18:17:42.621Z,18.47
2019-02-22T18:20:11.263Z,17.17
2019-02-22T18:22:39.865Z,18.33
2019-02-22T18:25:10.062Z,16.73
2019-02-22T18:27:38.624Z,18.37
2019-02-22T18:30:24.017Z,19.27
2019-02-22T18:32:52.587Z,17.80
2019-02-22T18:35:21.176Z,18.00
2019-02-22T18:37:49.742Z,18.83
2019-02-22T18:40:20.946Z,15.43
2019-02-22T18:42:50.394Z,18.90
2019-02-22T18:45:18.956Z,16.33
2019-02-22T18:47:47.542Z,17.20
2019-02-22T18:50:16.114Z,15.57
2019-02-22T18:52:44.719Z,18.10
2019-02-22T18:55:13.285Z,14.57
2019-02-22T18:57:41.794Z,17.83
2019-02-22T19:00:16.674Z,17.57
2019-02-22T19:02:45.256Z,17.40
2019-02-22T19:05:13.930Z,16.20
2019-02-22T19:07:42.482Z,15.83
2019-02-22T19:10:12.689Z,16.37
2019-02-22T19:12:41.337Z,18.80
2019-02-22T19:15:11.865Z,21.60
2019-02-22T19:17:40.708Z,18.00
2019-02-22T19:20:12.068Z,19.63
2019-02-22T19:22:40.711Z,17.50
2019-02-22T19:25:09.606Z,21.33
2019-02-22T19:27:38.202Z,22.93
2019-02-22T19:30:09.761Z,19.30
2019-02-22T19:32:38.347Z,18.40
2019-02-22T19:35:07.053Z,19.37
2019-02-22T19:37:35.636Z,16.87
2019-02-22T19:40:06.333Z,21.47
2019-02-22T19:42:34.847Z,19.97
2019-02-22T19:45:03.747Z,17.70
2019-02-22T19:47:41.338Z,17.60
2019-02-22T19:50:02.814Z,18.30
2019-02-22T19:52:31.414Z,21.03
2019-02-22T19:54:59.930Z,18.67
2019-02-22T19:57:28.527Z,19.43
2019-02-22T19:59:57.190Z,21.37
2019-02-22T20:02:25.702Z,18.57
2019-02-22T20:04:54.335Z,20.80
2019-02-22T20:07:22.916Z,20.43
2019-02-22T20:09:51.478Z,21.27
2019-02-22T20:12:19.985Z,17.63
2019-02-22T20:14:48.478Z,22.13
2019-02-22T20:17:17.061Z,24.27
2019-02-22T20:19:45.633Z,22.03
2019-02-22T20:22:14.332Z,21.13
2019-02-22T20:24:42.906Z,20.33
2019-02-22T20:27:12.713Z,21.50
2019-02-22T20:29:41.337Z,21.50
2019-02-22T20:32:10.621Z,22.73
2019-02-22T20:34:39.299Z,22.60
2019-02-22T20:37:07.903Z,24.17
2019-02-22T20:39:36.546Z,26.43
2019-02-22T20:42:05.335Z,24.20
2019-02-22T20:44:34.134Z,26.20
2019-02-22T20:47:03.409Z,25.30
2019-02-22T20:49:31.982Z,22.60
2019-02-22T20:52:00.499Z,24.77
2019-02-22T20:54:30.616Z,23.70
2019-02-22T20:56:59.218Z,23.33
2019-02-22T20:59:27.782Z,25.40
2019-02-22T21:01:56.374Z,24.77
2019-02-22T21:04:24.866Z,25.20
2019-02-22T21:06:53.451Z,24.57
2019-02-22T21:09:22.027Z,24.70
2019-02-22T21:11:50.600Z,27.47
2019-02-22T21:14:19.181Z,23.13
2019-02-22T21:16:48.073Z,22.63
2019-02-22T21:19:16.663Z,25.27
2019-02-22T21:21:45.159Z,27.60
2019-02-22T21:24:13.767Z,24.87
2019-02-22T21:26:42.326Z,26.00
2019-02-22T21:29:10.911Z,27.33
2019-02-22T21:31:39.479Z,29.80
2019-02-22T21:34:08.079Z,27.13
2019-02-22T21:36:36.638Z,26.80
2019-02-22T21:39:05.567Z,27.37
2019-02-22T21:41:34.195Z,31.07
2019-02-22T21:44:02.784Z,28.97
2019-02-22T21:46:31.347Z,28.77
2019-02-22T21:48:59.952Z,26.63
2019-02-22T21:51:29.253Z,31.23
2019-02-22T21:53:57.898Z,31.60
2019-02-22T21:56:26.457Z,30.73
2019-02-22T21:58:55.054Z,29.87
2019-02-22T22:01:23.615Z,32.77
2019-02-22T22:03:52.208Z,31.10
2019-02-22T22:06:21.045Z,31.00
2019-02-22T22:08:49.640Z,32.77
2019-02-22T22:11:19.789Z,35.27
2019-02-22T22:13:49.141Z,34.73
2019-02-22T22:16:17.780Z,31.13
2019-02-22T22:18:46.368Z,36.57
2019-02-22T22:21:14.866Z,32.83
2019-02-22T22:23:43.463Z,35.63
2019-02-22T22:26:12.036Z,32.43
2019-02-22T22:28:40.648Z,33.00
2019-02-22T22:31:10.335Z,31.97
2019-02-22T22:33:39.187Z,31.10
2019-02-22T22:36:09.035Z,33.43
2019-02-22T22:38:37.622Z,36.33
2019-02-22T22:41:06.190Z,30.60
2019-02-22T22:43:34.782Z,30.17
2019-02-22T22:46:03.350Z,33.10
2019-02-22T22:48:32.197Z,33.67
2019-02-22T22:51:00.753Z,32.23
2019-02-22T22:53:29.553Z,33.37
2019-02-22T22:55:58.107Z,29.33
2019-02-22T22:58:26.709Z,35.03
2019-02-22T23:00:59.973Z,33.20
2019-02-22T23:03:30.078Z,31.63
2019-02-22T23:05:59.416Z,32.37
2019-02-22T23:08:27.997Z,33.87
2019-02-22T23:10:56.570Z,30.10
2019-02-22T23:13:25.233Z,28.27
2019-02-22T23:15:53.725Z,27.53
2019-02-22T23:18:22.303Z,30.80
2019-02-22T23:20:51.644Z,28.80
2019-02-22T23:23:20.303Z,29.23
2019-02-22T23:25:48.924Z,29.30
2019-02-22T23:28:17.529Z,32.00
2019-02-22T23:30:46.386Z,30.13
2019-02-22T23:33:14.889Z,30.20
2019-02-22T23:35:43.482Z,34.77
2019-02-22T23:38:12.085Z,30.37
2019-02-22T23:40:40.582Z,29.03
2019-02-22T23:43:09.218Z,28.87
2019-02-22T23:45:38.553Z,26.17
2019-02-22T23:48:07.148Z,28.10
2019-02-22T23:50:35.706Z,30.27
2019-02-22T23:53:04.274Z,27.73
2019-02-22T23:55:32.870Z,25.93
2019-02-22T23:58:01.433Z,27.50
